LFPO METAR and TAF | Updated Today

LFPO METAR

Paris-Orly Airport

Observation time: 10 min. ago

LFPO 062000Z 03010KT CAVOK 05/M00 Q1037 NOSIG

Need help? Read our tutorial on how to read METARs or read the parsed version below.

Paris-Orly Airport (LFPO) METAR

  • Weather conditions on Mon, 06 Feb 2023 20:00:00 +0000 (10 min. ago):
  • Present conditions: Dry
  • Clouds: Clear skies
  • Visibility: Greater than 10 km
  • Wind: 30 degrees at 10 knots
  • Temperature: 5 celsius
  • Dew point: 0 celsius
  • Pressure: 1037 millibars
  • Remarks: None


Useful to know...

LFPO TAF

Paris-Orly Airport

TAF LFPO 061700Z 0618/0724 03007KT CAVOK BECMG 0708/0711 09010KT
Observation time: 3:10 hr. ago
Need help? Read our tutorial on how to read TAFs or read the parsed version below.

Parsed version of TAF for Paris-Orly Airport (LFPO)

  • From 06 February at 18:00 UTC, to day 07 of the month at 24:00 UTC
  • Visibility: Greater than 10 km
  • Wind: 30 degrees at 7
  • Expected to arise soon, from 07 February at 08:00 UTC, to day 07 of the month at 11:00 UTC
  • Wind: 90 degrees at 10